Time,TemperatureF,DewpointF,PressureIn,WindDirection,WindDirectionDegrees,WindSpeedMPH,WindSpeedGustMPH,Humidity,HourlyPrecipIn,Conditions,Clouds,dailyrainin,SolarRadiationWatts/m^2,SoftwareType,DateUTC
2013-10-19 01:00:00,45.0,37.0,-100.00,SW,225,2.0,-999.0,74,-99.99,,,-99.99,0.000000,,2013-10-19 05:00:00,
2013-10-19 01:42:00,45.0,37.0,-100.00,SW,225,2.0,-999.0,74,-99.99,,,-99.99,0.000000,,2013-10-19 05:42:00,
2013-10-19 01:52:00,45.0,37.0,-100.00,SW,225,2.0,-999.0,74,-99.99,,,-99.99,0.000000,,2013-10-19 05:52:00,
2013-10-19 02:00:00,47.0,36.0,-100.00,West,270,4.0,-999.0,66,-99.99,,,-99.99,0.000000,,2013-10-19 06:00:00,
2013-10-19 02:42:00,47.0,36.0,-100.00,West,270,4.0,-999.0,66,-99.99,,,-99.99,0.000000,,2013-10-19 06:42:00,
2013-10-19 02:52:00,47.0,36.0,-100.00,West,270,4.0,-999.0,66,-99.99,,,-99.99,0.000000,,2013-10-19 06:52:00,
2013-10-19 03:00:00,46.0,36.0,-100.00,WSW,247,2.0,-999.0,67,-99.99,,,-99.99,0.000000,,2013-10-19 07:00:00,
2013-10-19 03:42:00,46.0,36.0,-100.00,WSW,247,2.0,-999.0,67,-99.99,,,-99.99,0.000000,,2013-10-19 07:42:00,
2013-10-19 03:53:00,46.0,36.0,-100.00,WSW,247,2.0,-999.0,67,-99.99,,,-99.99,0.000000,,2013-10-19 07:53:00,
2013-10-19 04:00:00,46.0,36.0,-100.00,SW,225,1.0,-999.0,68,-99.99,,,-99.99,0.000000,,2013-10-19 08:00:00,
2013-10-19 04:42:00,46.0,36.0,-100.00,SW,225,1.0,-999.0,68,-99.99,,,-99.99,0.000000,,2013-10-19 08:42:00,
2013-10-19 04:52:00,46.0,36.0,-100.00,SW,225,1.0,-999.0,68,-99.99,,,-99.99,0.000000,,2013-10-19 08:52:00,
2013-10-19 05:00:00,44.0,38.0,-100.00,SSW,202,2.0,-999.0,77,-99.99,,,-99.99,0.000000,,2013-10-19 09:00:00,
2013-10-19 05:43:00,44.0,38.0,-100.00,SSW,202,2.0,-999.0,77,-99.99,,,-99.99,0.000000,,2013-10-19 09:43:00,
2013-10-19 05:54:00,44.0,38.0,-100.00,SSW,202,2.0,-999.0,77,-99.99,,,-99.99,0.000000,,2013-10-19 09:54:00,
2013-10-19 06:00:00,43.0,38.0,-100.00,SSW,202,2.0,-999.0,83,0.02,,,-99.99,0.000000,,2013-10-19 10:00:00,
2013-10-19 06:42:00,43.0,38.0,-100.00,SSW,202,2.0,-999.0,83,0.02,,,-99.99,0.000000,,2013-10-19 10:42:00,
2013-10-19 06:53:00,43.0,38.0,-100.00,SSW,202,2.0,-999.0,83,0.02,,,-99.99,0.000000,,2013-10-19 10:53:00,
2013-10-19 08:00:00,42.0,38.0,-100.00,SSW,202,3.0,-999.0,86,0.04,,,-99.99,0.000000,,2013-10-19 12:00:00,
2013-10-19 08:43:00,42.0,38.0,-100.00,SSW,202,3.0,-999.0,86,0.04,,,-99.99,0.000000,,2013-10-19 12:43:00,
2013-10-19 08:52:00,42.0,38.0,-100.00,SSW,202,3.0,-999.0,86,0.04,,,-99.99,0.000000,,2013-10-19 12:52:00,
2013-10-19 10:00:00,41.0,37.0,-100.00,South,180,2.0,-999.0,84,0.07,,,-99.99,10.440000,,2013-10-19 14:00:00,
2013-10-19 10:42:00,41.0,37.0,-100.00,South,180,2.0,-999.0,84,0.07,,,-99.99,10.440000,,2013-10-19 14:42:00,
2013-10-19 10:52:00,41.0,37.0,-100.00,South,180,2.0,-999.0,84,0.07,,,-99.99,10.440000,,2013-10-19 14:52:00,
2013-10-19 11:00:00,42.0,38.0,-100.00,SSW,202,5.0,-999.0,85,0.01,,,-99.99,29.000000,,2013-10-19 15:00:00,
2013-10-19 11:44:00,42.0,38.0,-100.00,SSW,202,5.0,-999.0,85,0.01,,,-99.99,29.000000,,2013-10-19 15:44:00,
2013-10-19 11:55:00,42.0,38.0,-100.00,SSW,202,5.0,-999.0,85,0.01,,,-99.99,29.000000,,2013-10-19 15:55:00,
2013-10-19 12:00:00,45.0,40.0,-100.00,SW,225,6.0,-999.0,84,-99.99,,,-99.99,219.240005,,2013-10-19 16:00:00,
2013-10-19 12:43:00,45.0,40.0,-100.00,SW,225,6.0,-999.0,84,-99.99,,,-99.99,219.240005,,2013-10-19 16:43:00,
2013-10-19 12:53:00,45.0,40.0,-100.00,SW,225,6.0,-999.0,84,-99.99,,,-99.99,219.240005,,2013-10-19 16:53:00,
2013-10-19 14:00:00,51.0,35.0,-100.00,WSW,247,9.0,-999.0,54,-99.99,,,-99.99,424.559998,,2013-10-19 18:00:00,
2013-10-19 14:42:00,51.0,35.0,-100.00,WSW,247,9.0,-999.0,54,-99.99,,,-99.99,424.559998,,2013-10-19 18:42:00,
2013-10-19 14:52:00,51.0,35.0,-100.00,WSW,247,9.0,-999.0,54,-99.99,,,-99.99,424.559998,,2013-10-19 18:52:00,
2013-10-19 16:00:00,53.0,31.0,-100.00,SW,225,9.0,-999.0,43,-99.99,,,-99.99,425.720001,,2013-10-19 20:00:00,
2013-10-19 16:42:00,53.0,31.0,-100.00,SW,225,9.0,-999.0,43,-99.99,,,-99.99,425.720001,,2013-10-19 20:42:00,
2013-10-19 16:52:00,53.0,31.0,-100.00,SW,225,9.0,-999.0,43,-99.99,,,-99.99,425.720001,,2013-10-19 20:52:00,
2013-10-19 18:00:00,46.0,36.0,-100.00,SW,225,4.0,-999.0,67,-99.99,,,-99.99,53.360001,,2013-10-19 22:00:00,
2013-10-19 18:43:00,46.0,36.0,-100.00,SW,225,4.0,-999.0,67,-99.99,,,-99.99,53.360001,,2013-10-19 22:43:00,
2013-10-19 18:53:00,46.0,36.0,-100.00,SW,225,4.0,-999.0,67,-99.99,,,-99.99,53.360001,,2013-10-19 22:53:00,
2013-10-19 19:00:00,47.0,34.0,-100.00,WSW,247,3.0,-999.0,60,0.01,,,-99.99,35.959999,,2013-10-19 23:00:00,
2013-10-19 19:42:00,47.0,34.0,-100.00,WSW,247,3.0,-999.0,60,0.01,,,-99.99,35.959999,,2013-10-19 23:42:00,
2013-10-19 19:53:00,47.0,34.0,-100.00,WSW,247,3.0,-999.0,60,0.01,,,-99.99,35.959999,,2013-10-19 23:53:00,
2013-10-19 21:00:00,45.0,35.0,-100.00,SSW,202,5.0,-999.0,66,0.03,,,-99.99,0.000000,,2013-10-20 01:00:00,
2013-10-19 21:42:00,45.0,35.0,-100.00,SSW,202,5.0,-999.0,66,0.03,,,-99.99,0.000000,,2013-10-20 01:42:00,
2013-10-19 21:52:00,45.0,35.0,-100.00,SSW,202,5.0,-999.0,66,0.03,,,-99.99,0.000000,,2013-10-20 01:52:00,
2013-10-19 22:00:00,44.0,38.0,-100.00,SSW,202,4.0,-999.0,78,0.02,,,-99.99,0.000000,,2013-10-20 02:00:00,
2013-10-19 22:42:00,44.0,38.0,-100.00,SSW,202,4.0,-999.0,78,0.02,,,-99.99,0.000000,,2013-10-20 02:42:00,
2013-10-19 22:52:00,44.0,38.0,-100.00,SSW,202,4.0,-999.0,78,0.02,,,-99.99,0.000000,,2013-10-20 02:52:00,
2013-10-19 23:00:00,-999.0,-99.9,-100.00,SSW,202,4.0,-999.0,-999,-99.99,,,-99.99,,,2013-10-20 03:00:00,
2013-10-19 23:44:00,44.0,38.0,-100.00,SSW,202,4.0,-999.0,80,-99.99,,,-99.99,0.000000,,2013-10-20 03:44:00,
2013-10-19 23:55:00,44.0,38.0,-100.00,SSW,202,4.0,-999.0,80,-99.99,,,-99.99,0.000000,,2013-10-20 03:55:00,